sensor_id;sensor_type;location;lat;lon;timestamp;pressure;altitude;pressure_sealevel;temperature;humidity
29169;BME280;16219;42.864;23.360;2022-10-04T00:01:06;96080.53;;;8.88;100.00
29169;BME280;16219;42.864;23.360;2022-10-04T00:03:40;96067.47;;;8.83;100.00
29169;BME280;16219;42.864;23.360;2022-10-04T00:06:14;96071.28;;;8.90;100.00
29169;BME280;16219;42.864;23.360;2022-10-04T00:08:47;96069.09;;;8.65;100.00
29169;BME280;16219;42.864;23.360;2022-10-04T00:11:21;96070.34;;;8.54;100.00
29169;BME280;16219;42.864;23.360;2022-10-04T00:13:52;96062.41;;;8.59;100.00
29169;BME280;16219;42.864;23.360;2022-10-04T00:16:23;96055.38;;;8.68;100.00
29169;BME280;16219;42.864;23.360;2022-10-04T00:19:01;96062.97;;;8.69;100.00
29169;BME280;16219;42.864;23.360;2022-10-04T00:24:36;96058.28;;;8.52;100.00
29169;BME280;16219;42.864;23.360;2022-10-04T00:27:10;96054.31;;;8.36;100.00
29169;BME280;16219;42.864;23.360;2022-10-04T00:29:39;96049.41;;;8.48;100.00
29169;BME280;16219;42.864;23.360;2022-10-04T00:32:25;96059.44;;;8.46;100.00
29169;BME280;16219;42.864;23.360;2022-10-04T00:34:54;96053.53;;;8.36;100.00
29169;BME280;16219;42.864;23.360;2022-10-04T00:37:23;96050.66;;;8.37;100.00
29169;BME280;16219;42.864;23.360;2022-10-04T00:40:02;96052.69;;;8.40;100.00
29169;BME280;16219;42.864;23.360;2022-10-04T00:42:44;96046.19;;;8.19;100.00
29169;BME280;16219;42.864;23.360;2022-10-04T00:48:15;96040.84;;;8.24;100.00
29169;BME280;16219;42.864;23.360;2022-10-04T00:50:53;96048.81;;;8.38;100.00
29169;BME280;16219;42.864;23.360;2022-10-04T00:53:35;96042.78;;;8.37;100.00
29169;BME280;16219;42.864;23.360;2022-10-04T00:56:09;96039.41;;;8.32;100.00
29169;BME280;16219;42.864;23.360;2022-10-04T00:58:46;96034.25;;;8.26;100.00
29169;BME280;16219;42.864;23.360;2022-10-04T01:01:18;96027.56;;;8.34;100.00
29169;BME280;16219;42.864;23.360;2022-10-04T01:03:49;96035.44;;;8.34;100.00
29169;BME280;16219;42.864;23.360;2022-10-04T01:06:19;96030.34;;;8.24;100.00
29169;BME280;16219;42.864;23.360;2022-10-04T01:08:49;96013.53;;;7.92;100.00
29169;BME280;16219;42.864;23.360;2022-10-04T01:11:22;96018.41;;;7.99;100.00
29169;BME280;16219;42.864;23.360;2022-10-04T01:13:55;96015.81;;;8.13;100.00
29169;BME280;16219;42.864;23.360;2022-10-04T01:16:26;96028.34;;;8.02;100.00
29169;BME280;16219;42.864;23.360;2022-10-04T01:18:54;96020.41;;;8.21;100.00
29169;BME280;16219;42.864;23.360;2022-10-04T01:21:25;96025.81;;;8.11;100.00
29169;BME280;16219;42.864;23.360;2022-10-04T01:24:16;96022.63;;;8.14;100.00
29169;BME280;16219;42.864;23.360;2022-10-04T01:26:45;96024.28;;;8.10;100.00
29169;BME280;16219;42.864;23.360;2022-10-04T01:29:15;96027.41;;;8.12;100.00
29169;BME280;16219;42.864;23.360;2022-10-04T01:31:44;96013.75;;;8.10;100.00
29169;BME280;16219;42.864;23.360;2022-10-04T01:34:14;96008.69;;;7.99;100.00
29169;BME280;16219;42.864;23.360;2022-10-04T01:36:42;96013.09;;;8.04;100.00
29169;BME280;16219;42.864;23.360;2022-10-04T01:39:12;96017.47;;;8.09;100.00
29169;BME280;16219;42.864;23.360;2022-10-04T01:41:45;96014.09;;;7.89;100.00
29169;BME280;16219;42.864;23.360;2022-10-04T01:44:21;96013.75;;;7.77;100.00
29169;BME280;16219;42.864;23.360;2022-10-04T01:46:51;96010.09;;;7.78;100.00
29169;BME280;16219;42.864;23.360;2022-10-04T01:49:26;96003.47;;;7.81;100.00
29169;BME280;16219;42.864;23.360;2022-10-04T01:51:57;96011.97;;;7.91;100.00
29169;BME280;16219;42.864;23.360;2022-10-04T01:54:32;96002.47;;;7.76;100.00
29169;BME280;16219;42.864;23.360;2022-10-04T01:57:06;96006.03;;;7.67;100.00
29169;BME280;16219;42.864;23.360;2022-10-04T01:59:40;96009.78;;;7.80;100.00
29169;BME280;16219;42.864;23.360;2022-10-04T02:02:20;96000.25;;;7.84;100.00
29169;BME280;16219;42.864;23.360;2022-10-04T02:04:51;95999.06;;;7.76;100.00
29169;BME280;16219;42.864;23.360;2022-10-04T02:07:20;95998.88;;;7.54;100.00
29169;BME280;16219;42.864;23.360;2022-10-04T02:09:50;96014.81;;;7.76;100.00
29169;BME280;16219;42.864;23.360;2022-10-04T02:12:22;96013.09;;;7.85;100.00
29169;BME280;16219;42.864;23.360;2022-10-04T02:14:51;96009.63;;;7.90;100.00
29169;BME280;16219;42.864;23.360;2022-10-04T02:17:22;96002.75;;;7.75;100.00
29169;BME280;16219;42.864;23.360;2022-10-04T02:19:53;96022.63;;;7.81;100.00
29169;BME280;16219;42.864;23.360;2022-10-04T02:22:22;96031.66;;;7.75;100.00
29169;BME280;16219;42.864;23.360;2022-10-04T02:24:52;96029.03;;;7.75;100.00
29169;BME280;16219;42.864;23.360;2022-10-04T02:27:25;96036.19;;;7.88;100.00
29169;BME280;16219;42.864;23.360;2022-10-04T02:29:59;96030.75;;;7.66;100.00
29169;BME280;16219;42.864;23.360;2022-10-04T02:32:29;96027.19;;;7.57;100.00
29169;BME280;16219;42.864;23.360;2022-10-04T02:35:14;96004.06;;;7.59;100.00
29169;BME280;16219;42.864;23.360;2022-10-04T02:37:42;96031.22;;;7.68;100.00
29169;BME280;16219;42.864;23.360;2022-10-04T02:40:12;96022.06;;;7.84;100.00
29169;BME280;16219;42.864;23.360;2022-10-04T02:42:45;96032.59;;;7.65;100.00
29169;BME280;16219;42.864;23.360;2022-10-04T02:45:18;96043.09;;;7.46;100.00
29169;BME280;16219;42.864;23.360;2022-10-04T02:47:51;96042.59;;;7.44;100.00
29169;BME280;16219;42.864;23.360;2022-10-04T02:50:27;96050.75;;;7.62;100.00
29169;BME280;16219;42.864;23.360;2022-10-04T02:53:00;96057.19;;;7.50;100.00
29169;BME280;16219;42.864;23.360;2022-10-04T02:55:30;96051.03;;;7.41;100.00
29169;BME280;16219;42.864;23.360;2022-10-04T02:57:59;96061.91;;;7.54;100.00
29169;BME280;16219;42.864;23.360;2022-10-04T03:00:28;96064.97;;;7.61;100.00
29169;BME280;16219;42.864;23.360;2022-10-04T03:03:14;96075.66;;;7.64;100.00
29169;BME280;16219;42.864;23.360;2022-10-04T03:05:45;96074.31;;;7.67;100.00
29169;BME280;16219;42.864;23.360;2022-10-04T03:08:18;96072.09;;;7.55;100.00
29169;BME280;16219;42.864;23.360;2022-10-04T03:10:46;96072.66;;;7.33;100.00
29169;BME280;16219;42.864;23.360;2022-10-04T03:13:15;96075.50;;;7.37;100.00
29169;BME280;16219;42.864;23.360;2022-10-04T03:15:45;96076.13;;;7.47;100.00
29169;BME280;16219;42.864;23.360;2022-10-04T03:18:13;96078.97;;;7.51;100.00
29169;BME280;16219;42.864;23.360;2022-10-04T03:20:41;96085.72;;;7.38;100.00
29169;BME280;16219;42.864;23.360;2022-10-04T03:23:10;96077.28;;;7.41;100.00
29169;BME280;16219;42.864;23.360;2022-10-04T03:25:43;96093.09;;;7.55;100.00
29169;BME280;16219;42.864;23.360;2022-10-04T03:28:11;96095.72;;;7.55;100.00
29169;BME280;16219;42.864;23.360;2022-10-04T03:30:42;96103.81;;;7.59;100.00
29169;BME280;16219;42.864;23.360;2022-10-04T03:33:15;96099.34;;;7.59;100.00
29169;BME280;16219;42.864;23.360;2022-10-04T03:35:45;96096.66;;;7.45;100.00
29169;BME280;16219;42.864;23.360;2022-10-04T03:38:13;96105.31;;;7.46;100.00
29169;BME280;16219;42.864;23.360;2022-10-04T03:40:47;96103.38;;;7.51;100.00
29169;BME280;16219;42.864;23.360;2022-10-04T03:43:18;96118.09;;;7.53;100.00
29169;BME280;16219;42.864;23.360;2022-10-04T03:45:48;96113.31;;;7.55;100.00
29169;BME280;16219;42.864;23.360;2022-10-04T03:48:24;96124.66;;;7.31;100.00
29169;BME280;16219;42.864;23.360;2022-10-04T03:50:54;96120.34;;;7.16;100.00
29169;BME280;16219;42.864;23.360;2022-10-04T03:53:27;96116.72;;;7.36;100.00
29169;BME280;16219;42.864;23.360;2022-10-04T03:55:56;96110.25;;;7.47;100.00
29169;BME280;16219;42.864;23.360;2022-10-04T03:58:27;96127.06;;;7.46;100.00
29169;BME280;16219;42.864;23.360;2022-10-04T04:01:08;96133.88;;;7.47;100.00
29169;BME280;16219;42.864;23.360;2022-10-04T04:03:45;96125.97;;;7.53;100.00
29169;BME280;16219;42.864;23.360;2022-10-04T04:06:17;96132.25;;;7.51;100.00
29169;BME280;16219;42.864;23.360;2022-10-04T04:08:47;96135.16;;;7.31;100.00
29169;BME280;16219;42.864;23.360;2022-10-04T04:11:21;96133.00;;;7.33;100.00
29169;BME280;16219;42.864;23.360;2022-10-04T04:13:57;96134.63;;;7.53;100.00
29169;BME280;16219;42.864;23.360;2022-10-04T04:16:29;96134.78;;;7.62;100.00
29169;BME280;16219;42.864;23.360;2022-10-04T04:19:00;96134.25;;;7.60;100.00
29169;BME280;16219;42.864;23.360;2022-10-04T04:21:29;96137.41;;;7.62;100.00
29169;BME280;16219;42.864;23.360;2022-10-04T04:23:59;96134.69;;;7.67;100.00
29169;BME280;16219;42.864;23.360;2022-10-04T04:26:37;96142.81;;;7.46;100.00
29169;BME280;16219;42.864;23.360;2022-10-04T04:29:12;96131.22;;;7.53;100.00
29169;BME280;16219;42.864;23.360;2022-10-04T04:31:48;96150.66;;;7.28;100.00
29169;BME280;16219;42.864;23.360;2022-10-04T04:34:19;96139.63;;;7.31;100.00
29169;BME280;16219;42.864;23.360;2022-10-04T04:36:47;96150.69;;;7.46;100.00
29169;BME280;16219;42.864;23.360;2022-10-04T04:39:16;96147.75;;;7.53;100.00
29169;BME280;16219;42.864;23.360;2022-10-04T04:42:12;96149.31;;;7.54;100.00
29169;BME280;16219;42.864;23.360;2022-10-04T04:44:46;96147.19;;;7.56;100.00
29169;BME280;16219;42.864;23.360;2022-10-04T04:47:26;96153.78;;;7.54;100.00
29169;BME280;16219;42.864;23.360;2022-10-04T04:49:56;96148.53;;;7.54;100.00
29169;BME280;16219;42.864;23.360;2022-10-04T04:52:27;96154.84;;;7.53;100.00
29169;BME280;16219;42.864;23.360;2022-10-04T04:54:56;96152.78;;;7.49;100.00
29169;BME280;16219;42.864;23.360;2022-10-04T04:57:24;96150.94;;;7.50;100.00
29169;BME280;16219;42.864;23.360;2022-10-04T04:59:55;96162.22;;;7.50;100.00
29169;BME280;16219;42.864;23.360;2022-10-04T05:02:33;96161.50;;;7.45;100.00
29169;BME280;16219;42.864;23.360;2022-10-04T05:05:22;96163.06;;;7.46;100.00
29169;BME280;16219;42.864;23.360;2022-10-04T05:08:01;96159.16;;;7.43;100.00
29169;BME280;16219;42.864;23.360;2022-10-04T05:10:31;96163.81;;;7.46;100.00
29169;BME280;16219;42.864;23.360;2022-10-04T05:12:59;96164.34;;;7.48;100.00
29169;BME280;16219;42.864;23.360;2022-10-04T05:15:31;96162.13;;;7.56;100.00
29169;BME280;16219;42.864;23.360;2022-10-04T05:18:12;96160.03;;;7.58;100.00
29169;BME280;16219;42.864;23.360;2022-10-04T05:20:46;96168.41;;;7.60;100.00
29169;BME280;16219;42.864;23.360;2022-10-04T05:23:14;96167.69;;;7.54;100.00
29169;BME280;16219;42.864;23.360;2022-10-04T05:25:42;96175.22;;;7.61;100.00
29169;BME280;16219;42.864;23.360;2022-10-04T05:28:09;96167.97;;;7.53;100.00
29169;BME280;16219;42.864;23.360;2022-10-04T05:30:51;96179.34;;;7.67;100.00
29169;BME280;16219;42.864;23.360;2022-10-04T05:33:35;96174.53;;;7.74;100.00
29169;BME280;16219;42.864;23.360;2022-10-04T05:39:21;96186.28;;;8.00;100.00
29169;BME280;16219;42.864;23.360;2022-10-04T05:41:56;96179.22;;;8.15;100.00
29169;BME280;16219;42.864;23.360;2022-10-04T05:44:34;96177.88;;;8.36;100.00
29169;BME280;16219;42.864;23.360;2022-10-04T05:47:05;96178.84;;;8.45;100.00
29169;BME280;16219;42.864;23.360;2022-10-04T05:49:39;96186.72;;;8.45;100.00
29169;BME280;16219;42.864;23.360;2022-10-04T05:52:13;96197.94;;;8.51;100.00
29169;BME280;16219;42.864;23.360;2022-10-04T05:54:41;96197.50;;;8.44;100.00
29169;BME280;16219;42.864;23.360;2022-10-04T05:57:24;96199.34;;;8.43;100.00
29169;BME280;16219;42.864;23.360;2022-10-04T06:00:07;96190.41;;;8.44;100.00
29169;BME280;16219;42.864;23.360;2022-10-04T06:03:03;96205.31;;;8.68;100.00
29169;BME280;16219;42.864;23.360;2022-10-04T06:05:46;96198.72;;;8.84;100.00
29169;BME280;16219;42.864;23.360;2022-10-04T06:08:21;96208.97;;;8.86;100.00
29169;BME280;16219;42.864;23.360;2022-10-04T06:11:17;96213.25;;;8.95;100.00
29169;BME280;16219;42.864;23.360;2022-10-04T06:17:15;96208.81;;;9.10;100.00
29169;BME280;16219;42.864;23.360;2022-10-04T06:20:09;96203.16;;;9.02;100.00
29169;BME280;16219;42.864;23.360;2022-10-04T06:22:46;96216.00;;;9.04;100.00
29169;BME280;16219;42.864;23.360;2022-10-04T06:25:19;96214.66;;;9.07;100.00
29169;BME280;16219;42.864;23.360;2022-10-04T06:27:52;96216.97;;;8.94;100.00
29169;BME280;16219;42.864;23.360;2022-10-04T06:30:22;96214.84;;;8.96;100.00
29169;BME280;16219;42.864;23.360;2022-10-04T06:33:05;96210.56;;;9.00;100.00
29169;BME280;16219;42.864;23.360;2022-10-04T06:38:56;96218.84;;;9.08;100.00
29169;BME280;16219;42.864;23.360;2022-10-04T06:44:46;96225.22;;;9.20;100.00
29169;BME280;16219;42.864;23.360;2022-10-04T06:47:30;96221.13;;;9.28;100.00
29169;BME280;16219;42.864;23.360;2022-10-04T06:50:13;96220.16;;;9.24;100.00
29169;BME280;16219;42.864;23.360;2022-10-04T06:52:57;96230.50;;;9.34;100.00
29169;BME280;16219;42.864;23.360;2022-10-04T06:55:39;96223.09;;;9.36;100.00
29169;BME280;16219;42.864;23.360;2022-10-04T06:58:26;96231.66;;;9.28;100.00
29169;BME280;16219;42.864;23.360;2022-10-04T07:01:02;96235.38;;;9.27;100.00
29169;BME280;16219;42.864;23.360;2022-10-04T07:03:39;96226.03;;;9.48;100.00
29169;BME280;16219;42.864;23.360;2022-10-04T07:06:12;96227.59;;;9.77;100.00
29169;BME280;16219;42.864;23.360;2022-10-04T07:08:44;96235.19;;;9.92;100.00
29169;BME280;16219;42.864;23.360;2022-10-04T07:11:19;96238.09;;;10.05;100.00
29169;BME280;16219;42.864;23.360;2022-10-04T07:13:52;96229.38;;;10.18;100.00
29169;BME280;16219;42.864;23.360;2022-10-04T07:16:33;96240.34;;;10.25;100.00
29169;BME280;16219;42.864;23.360;2022-10-04T07:19:22;96237.16;;;10.50;100.00
29169;BME280;16219;42.864;23.360;2022-10-04T07:21:59;96237.41;;;10.85;100.00
29169;BME280;16219;42.864;23.360;2022-10-04T07:24:41;96244.34;;;11.04;100.00
29169;BME280;16219;42.864;23.360;2022-10-04T07:27:15;96238.53;;;11.15;100.00
29169;BME280;16219;42.864;23.360;2022-10-04T07:29:44;96247.34;;;11.42;100.00
29169;BME280;16219;42.864;23.360;2022-10-04T07:32:14;96246.78;;;11.54;100.00
29169;BME280;16219;42.864;23.360;2022-10-04T07:34:47;96247.16;;;11.61;100.00
29169;BME280;16219;42.864;23.360;2022-10-04T07:37:17;96247.94;;;11.70;100.00
29169;BME280;16219;42.864;23.360;2022-10-04T07:39:50;96254.03;;;11.79;100.00
29169;BME280;16219;42.864;23.360;2022-10-04T07:42:26;96237.38;;;11.70;100.00
29169;BME280;16219;42.864;23.360;2022-10-04T07:45:11;96254.78;;;11.71;100.00
29169;BME280;16219;42.864;23.360;2022-10-04T07:47:40;96256.34;;;11.72;100.00
29169;BME280;16219;42.864;23.360;2022-10-04T07:50:19;96257.00;;;11.77;100.00
29169;BME280;16219;42.864;23.360;2022-10-04T07:52:52;96255.81;;;11.92;100.00
29169;BME280;16219;42.864;23.360;2022-10-04T07:55:28;96254.69;;;11.85;100.00
29169;BME280;16219;42.864;23.360;2022-10-04T07:58:23;96257.53;;;11.88;100.00
29169;BME280;16219;42.864;23.360;2022-10-04T08:00:57;96267.19;;;12.01;100.00
29169;BME280;16219;42.864;23.360;2022-10-04T08:03:36;96252.91;;;12.03;100.00
29169;BME280;16219;42.864;23.360;2022-10-04T08:06:13;96257.28;;;12.07;100.00
29169;BME280;16219;42.864;23.360;2022-10-04T08:09:21;96253.56;;;12.25;100.00
29169;BME280;16219;42.864;23.360;2022-10-04T08:11:54;96253.13;;;12.49;100.00
29169;BME280;16219;42.864;23.360;2022-10-04T08:14:37;96258.59;;;12.62;100.00
29169;BME280;16219;42.864;23.360;2022-10-04T08:17:18;96256.72;;;12.80;100.00
29169;BME280;16219;42.864;23.360;2022-10-04T08:19:56;96257.16;;;12.90;100.00
29169;BME280;16219;42.864;23.360;2022-10-04T08:22:49;96255.28;;;12.91;100.00
29169;BME280;16219;42.864;23.360;2022-10-04T08:25:23;96256.53;;;12.93;100.00
29169;BME280;16219;42.864;23.360;2022-10-04T08:28:01;96258.09;;;13.03;100.00
29169;BME280;16219;42.864;23.360;2022-10-04T08:31:02;96259.50;;;13.00;100.00
29169;BME280;16219;42.864;23.360;2022-10-04T08:34:04;96254.34;;;13.13;100.00
29169;BME280;16219;42.864;23.360;2022-10-04T08:36:59;96255.91;;;13.14;100.00
29169;BME280;16219;42.864;23.360;2022-10-04T08:39:44;96251.06;;;13.16;100.00
29169;BME280;16219;42.864;23.360;2022-10-04T08:42:48;96256.50;;;13.37;100.00
29169;BME280;16219;42.864;23.360;2022-10-04T08:46:08;96254.91;;;13.44;100.00
29169;BME280;16219;42.864;23.360;2022-10-04T08:49:11;96257.38;;;13.49;100.00
29169;BME280;16219;42.864;23.360;2022-10-04T08:52:06;96258.94;;;13.50;100.00
29169;BME280;16219;42.864;23.360;2022-10-04T08:55:13;96263.44;;;13.59;100.00
29169;BME280;16219;42.864;23.360;2022-10-04T08:58:06;96261.06;;;13.66;100.00
29169;BME280;16219;42.864;23.360;2022-10-04T09:00:59;96242.38;;;13.62;100.00
29169;BME280;16219;42.864;23.360;2022-10-04T09:03:58;96254.78;;;13.79;100.00
29169;BME280;16219;42.864;23.360;2022-10-04T09:06:41;96252.94;;;13.71;100.00
29169;BME280;16219;42.864;23.360;2022-10-04T09:12:41;96262.28;;;13.77;100.00
29169;BME280;16219;42.864;23.360;2022-10-04T09:15:32;96261.44;;;13.94;100.00
29169;BME280;16219;42.864;23.360;2022-10-04T09:18:20;96268.00;;;13.88;100.00
29169;BME280;16219;42.864;23.360;2022-10-04T09:20:56;96258.63;;;13.90;100.00
29169;BME280;16219;42.864;23.360;2022-10-04T09:26:42;96257.97;;;14.02;100.00
29169;BME280;16219;42.864;23.360;2022-10-04T09:29:30;96262.22;;;13.94;100.00
29169;BME280;16219;42.864;23.360;2022-10-04T09:35:24;96257.25;;;13.84;100.00
29169;BME280;16219;42.864;23.360;2022-10-04T09:38:27;96260.97;;;13.92;100.00
29169;BME280;16219;42.864;23.360;2022-10-04T09:47:28;96266.84;;;14.06;100.00
29169;BME280;16219;42.864;23.360;2022-10-04T09:50:18;96271.84;;;13.99;100.00
29169;BME280;16219;42.864;23.360;2022-10-04T09:52:57;96270.59;;;13.96;100.00
29169;BME280;16219;42.864;23.360;2022-10-04T09:55:45;96269.53;;;13.97;100.00
29169;BME280;16219;42.864;23.360;2022-10-04T09:58:40;96260.72;;;14.06;100.00
29169;BME280;16219;42.864;23.360;2022-10-04T10:01:21;96259.91;;;14.14;100.00
29169;BME280;16219;42.864;23.360;2022-10-04T10:04:16;96262.66;;;14.26;100.00
29169;BME280;16219;42.864;23.360;2022-10-04T10:06:58;96260.34;;;14.45;100.00
29169;BME280;16219;42.864;23.360;2022-10-04T10:09:37;96247.19;;;14.28;100.00
29169;BME280;16219;42.864;23.360;2022-10-04T10:12:48;96265.78;;;14.28;100.00
29169;BME280;16219;42.864;23.360;2022-10-04T10:15:56;96270.13;;;14.33;100.00
29169;BME280;16219;42.864;23.360;2022-10-04T10:18:35;96267.19;;;14.25;100.00
29169;BME280;16219;42.864;23.360;2022-10-04T10:21:21;96264.84;;;14.24;100.00
29169;BME280;16219;42.864;23.360;2022-10-04T10:24:17;96275.00;;;14.22;100.00
29169;BME280;16219;42.864;23.360;2022-10-04T10:27:12;96275.34;;;14.20;100.00
29169;BME280;16219;42.864;23.360;2022-10-04T10:33:10;96262.84;;;14.21;100.00
29169;BME280;16219;42.864;23.360;2022-10-04T10:36:17;96263.50;;;14.39;100.00
29169;BME280;16219;42.864;23.360;2022-10-04T10:39:01;96268.31;;;14.45;100.00
29169;BME280;16219;42.864;23.360;2022-10-04T10:41:42;96270.19;;;14.45;100.00
29169;BME280;16219;42.864;23.360;2022-10-04T10:44:22;96263.75;;;14.55;100.00
29169;BME280;16219;42.864;23.360;2022-10-04T10:47:19;96272.28;;;14.60;100.00
29169;BME280;16219;42.864;23.360;2022-10-04T10:50:15;96256.63;;;14.67;100.00
29169;BME280;16219;42.864;23.360;2022-10-04T10:53:15;96255.97;;;14.70;100.00
29169;BME280;16219;42.864;23.360;2022-10-04T10:56:24;96262.44;;;14.82;100.00
29169;BME280;16219;42.864;23.360;2022-10-04T10:59:29;96258.03;;;14.86;100.00
29169;BME280;16219;42.864;23.360;2022-10-04T11:02:24;96260.47;;;14.91;100.00
29169;BME280;16219;42.864;23.360;2022-10-04T11:08:14;96257.22;;;15.06;100.00
29169;BME280;16219;42.864;23.360;2022-10-04T11:11:10;96254.47;;;15.15;100.00
29169;BME280;16219;42.864;23.360;2022-10-04T11:14:07;96257.94;;;15.28;100.00
29169;BME280;16219;42.864;23.360;2022-10-04T11:17:01;96257.09;;;15.36;100.00
29169;BME280;16219;42.864;23.360;2022-10-04T11:26:25;96254.31;;;15.32;100.00
29169;BME280;16219;42.864;23.360;2022-10-04T11:29:12;96267.28;;;15.34;100.00
29169;BME280;16219;42.864;23.360;2022-10-04T11:32:04;96260.81;;;15.22;100.00
29169;BME280;16219;42.864;23.360;2022-10-04T11:35:25;96265.66;;;15.20;100.00
29169;BME280;16219;42.864;23.360;2022-10-04T11:38:04;96265.38;;;15.22;100.00
29169;BME280;16219;42.864;23.360;2022-10-04T11:40:49;96258.03;;;15.19;100.00
29169;BME280;16219;42.864;23.360;2022-10-04T11:46:25;96265.88;;;15.15;100.00
29169;BME280;16219;42.864;23.360;2022-10-04T11:49:13;96265.19;;;15.06;100.00
29169;BME280;16219;42.864;23.360;2022-10-04T11:55:09;96257.56;;;15.05;100.00
29169;BME280;16219;42.864;23.360;2022-10-04T11:57:47;96267.34;;;14.92;100.00
29169;BME280;16219;42.864;23.360;2022-10-04T12:00:19;96260.16;;;14.92;100.00
29169;BME280;16219;42.864;23.360;2022-10-04T12:05:59;96271.38;;;15.31;100.00
29169;BME280;16219;42.864;23.360;2022-10-04T12:08:35;96267.69;;;15.69;100.00
29169;BME280;16219;42.864;23.360;2022-10-04T12:11:25;96267.16;;;16.00;100.00
29169;BME280;16219;42.864;23.360;2022-10-04T12:14:29;96263.72;;;16.12;100.00
29169;BME280;16219;42.864;23.360;2022-10-04T12:17:29;96272.13;;;16.38;100.00
29169;BME280;16219;42.864;23.360;2022-10-04T12:20:24;96272.88;;;16.51;100.00
29169;BME280;16219;42.864;23.360;2022-10-04T12:23:04;96276.88;;;16.45;94.32
29169;BME280;16219;42.864;23.360;2022-10-04T12:25:55;96271.31;;;16.62;100.00
29169;BME280;16219;42.864;23.360;2022-10-04T12:31:32;96277.41;;;16.63;92.42
29169;BME280;16219;42.864;23.360;2022-10-04T12:34:12;96277.25;;;16.31;93.74
29169;BME280;16219;42.864;23.360;2022-10-04T12:39:57;96283.69;;;15.93;99.01
29169;BME280;16219;42.864;23.360;2022-10-04T12:42:35;96289.31;;;15.92;100.00
29169;BME280;16219;42.864;23.360;2022-10-04T12:45:38;96295.44;;;15.80;100.00
29169;BME280;16219;42.864;23.360;2022-10-04T12:48:20;96300.91;;;15.63;100.00
29169;BME280;16219;42.864;23.360;2022-10-04T12:50:55;96299.09;;;15.55;100.00
29169;BME280;16219;42.864;23.360;2022-10-04T12:53:35;96294.91;;;15.54;100.00
29169;BME280;16219;42.864;23.360;2022-10-04T12:56:14;96294.50;;;15.64;98.33
29169;BME280;16219;42.864;23.360;2022-10-04T12:59:06;96291.69;;;15.93;98.46
29169;BME280;16219;42.864;23.360;2022-10-04T13:01:46;96294.78;;;16.08;96.18
29169;BME280;16219;42.864;23.360;2022-10-04T13:04:27;96294.44;;;16.21;99.44
29169;BME280;16219;42.864;23.360;2022-10-04T13:07:13;96302.09;;;16.11;95.50
29169;BME280;16219;42.864;23.360;2022-10-04T13:09:50;96295.44;;;16.17;94.21
29169;BME280;16219;42.864;23.360;2022-10-04T13:12:27;96282.47;;;16.03;91.48
29169;BME280;16219;42.864;23.360;2022-10-04T13:15:16;96289.09;;;16.09;97.58
29169;BME280;16219;42.864;23.360;2022-10-04T13:17:51;96286.78;;;16.08;93.91
29169;BME280;16219;42.864;23.360;2022-10-04T13:20:29;96290.09;;;16.05;93.04
29169;BME280;16219;42.864;23.360;2022-10-04T13:23:06;96288.13;;;16.02;92.06
29169;BME280;16219;42.864;23.360;2022-10-04T13:25:54;96284.22;;;15.99;93.48
29169;BME280;16219;42.864;23.360;2022-10-04T13:28:28;96290.09;;;16.05;94.26
29169;BME280;16219;42.864;23.360;2022-10-04T13:31:05;96286.34;;;16.06;92.06
29169;BME280;16219;42.864;23.360;2022-10-04T13:33:42;96287.66;;;16.24;97.55
29169;BME280;16219;42.864;23.360;2022-10-04T13:36:19;96291.53;;;16.27;90.45
29169;BME280;16219;42.864;23.360;2022-10-04T13:42:02;96297.09;;;16.09;100.00
29169;BME280;16219;42.864;23.360;2022-10-04T13:44:57;96294.34;;;15.93;97.88
29169;BME280;16219;42.864;23.360;2022-10-04T13:47:41;96301.50;;;15.68;95.34
29169;BME280;16219;42.864;23.360;2022-10-04T13:50:29;96300.41;;;15.69;99.58
29169;BME280;16219;42.864;23.360;2022-10-04T13:53:07;96308.66;;;15.56;100.00
29169;BME280;16219;42.864;23.360;2022-10-04T13:55:59;96314.97;;;15.51;99.49
29169;BME280;16219;42.864;23.360;2022-10-04T13:58:52;96316.91;;;15.42;100.00
29169;BME280;16219;42.864;23.360;2022-10-04T14:01:53;96323.47;;;15.44;100.00
29169;BME280;16219;42.864;23.360;2022-10-04T14:05:02;96317.41;;;15.56;100.00
29169;BME280;16219;42.864;23.360;2022-10-04T14:07:55;96327.22;;;15.64;100.00
29169;BME280;16219;42.864;23.360;2022-10-04T14:13:50;96323.94;;;15.59;100.00
29169;BME280;16219;42.864;23.360;2022-10-04T14:26:07;96336.81;;;15.03;100.00
29169;BME280;16219;42.864;23.360;2022-10-04T14:28:56;96333.72;;;15.00;100.00
29169;BME280;16219;42.864;23.360;2022-10-04T14:32:02;96332.81;;;14.96;100.00
29169;BME280;16219;42.864;23.360;2022-10-04T14:34:51;96339.41;;;14.90;100.00
29169;BME280;16219;42.864;23.360;2022-10-04T14:38:07;96346.94;;;14.88;100.00
29169;BME280;16219;42.864;23.360;2022-10-04T14:43:58;96344.63;;;14.78;100.00
29169;BME280;16219;42.864;23.360;2022-10-04T14:46:41;96352.50;;;14.74;100.00
29169;BME280;16219;42.864;23.360;2022-10-04T14:49:17;96352.50;;;14.74;100.00
29169;BME280;16219;42.864;23.360;2022-10-04T14:52:02;96355.94;;;14.75;100.00
29169;BME280;16219;42.864;23.360;2022-10-04T14:54:41;96360.13;;;14.76;100.00
29169;BME280;16219;42.864;23.360;2022-10-04T14:57:16;96361.44;;;14.70;100.00
29169;BME280;16219;42.864;23.360;2022-10-04T15:05:42;96369.41;;;14.70;100.00
29169;BME280;16219;42.864;23.360;2022-10-04T15:08:37;96374.47;;;14.54;100.00
29169;BME280;16219;42.864;23.360;2022-10-04T15:11:13;96381.88;;;14.48;100.00
29169;BME280;16219;42.864;23.360;2022-10-04T15:13:50;96390.28;;;14.42;100.00
29169;BME280;16219;42.864;23.360;2022-10-04T15:16:32;96387.38;;;14.26;100.00
29169;BME280;16219;42.864;23.360;2022-10-04T15:19:06;96387.75;;;14.16;100.00